createdAt,value
2022-10-19T00:03:01.532Z,29.8
2022-10-19T00:08:01.727Z,28.0
2022-10-19T00:13:01.934Z,29.0
2022-10-19T00:18:01.543Z,30.4
2022-10-19T00:23:02.321Z,31.6
2022-10-19T00:28:01.516Z,30.0
2022-10-19T00:33:02.382Z,30.7
2022-10-19T00:38:01.545Z,30.4
2022-10-19T00:43:01.519Z,30.6
2022-10-19T00:48:01.517Z,28.9
2022-10-19T00:53:01.562Z,29.9
2022-10-19T00:58:01.469Z,29.4
2022-10-19T01:03:01.294Z,30.0
2022-10-19T01:08:01.316Z,27.9
2022-10-19T01:13:01.325Z,27.7
2022-10-19T01:18:01.411Z,28.1
2022-10-19T01:23:16.579Z,27.4
2022-10-19T01:28:01.367Z,25.5
2022-10-19T01:33:01.289Z,26.6
2022-10-19T01:38:01.320Z,27.2
2022-10-19T01:43:01.380Z,26.5
2022-10-19T01:48:01.076Z,28.5
2022-10-19T01:53:01.028Z,28.0
2022-10-19T01:58:01.226Z,28.4
2022-10-19T02:03:01.450Z,29.3
2022-10-19T02:08:01.579Z,28.9
2022-10-19T02:13:01.547Z,28.2
2022-10-19T02:18:01.564Z,29.1
2022-10-19T02:23:01.574Z,27.6
2022-10-19T02:28:02.985Z,25.4
2022-10-19T02:33:01.537Z,23.5
2022-10-19T02:38:01.558Z,22.6
2022-10-19T02:43:01.576Z,20.6
2022-10-19T02:48:01.544Z,20.0
2022-10-19T02:53:01.549Z,21.4
2022-10-19T02:58:02.190Z,22.0
2022-10-19T03:03:01.542Z,20.3
2022-10-19T03:08:01.577Z,20.4
2022-10-19T03:13:01.555Z,20.1
2022-10-19T03:18:01.685Z,19.7
2022-10-19T03:23:01.498Z,20.4
2022-10-19T03:28:01.547Z,19.8
2022-10-19T03:33:01.540Z,18.2
2022-10-19T03:38:01.971Z,17.1
2022-10-19T03:43:01.561Z,16.3
2022-10-19T03:48:01.532Z,15.6
2022-10-19T03:58:01.445Z,16.4
2022-10-19T04:03:01.524Z,17.4
2022-10-19T04:08:01.508Z,16.9
2022-10-19T04:13:01.541Z,16.6
2022-10-19T04:18:01.535Z,17.8
2022-10-19T04:23:01.582Z,20.5
2022-10-19T04:28:01.727Z,20.9
2022-10-19T04:33:01.515Z,21.4
2022-10-19T04:38:01.536Z,22.7
2022-10-19T04:43:01.695Z,22.2
2022-10-19T04:48:01.509Z,20.0
2022-10-19T04:53:01.540Z,20.2
2022-10-19T04:58:01.550Z,20.0
2022-10-19T05:03:01.514Z,19.3
2022-10-19T05:08:01.515Z,18.9
2022-10-19T05:13:01.529Z,20.9
2022-10-19T05:18:01.541Z,20.3
2022-10-19T05:23:04.628Z,20.7
2022-10-19T05:28:01.608Z,21.4
2022-10-19T05:33:01.520Z,22.4
2022-10-19T05:38:01.557Z,24.0
2022-10-19T05:43:01.395Z,26.2
2022-10-19T05:48:01.333Z,27.3
2022-10-19T05:53:01.306Z,28.5
2022-10-19T05:58:01.318Z,28.6
2022-10-19T06:03:01.698Z,25.1
2022-10-19T06:08:00.930Z,23.5
2022-10-19T06:13:01.271Z,22.3
2022-10-19T06:18:01.465Z,22.6
2022-10-19T06:23:01.511Z,23.4
2022-10-19T06:28:01.592Z,26.6
2022-10-19T06:38:01.579Z,28.7
2022-10-19T06:43:01.547Z,27.4
2022-10-19T06:48:03.493Z,27.8
2022-10-19T06:53:01.424Z,26.5
2022-10-19T06:58:01.502Z,25.7
2022-10-19T07:03:01.461Z,26.1
2022-10-19T07:08:01.498Z,34.7
2022-10-19T07:13:01.565Z,46.9
2022-10-19T07:18:01.537Z,53.3
2022-10-19T07:23:02.339Z,52.5
2022-10-19T07:28:01.545Z,53.7
2022-10-19T07:33:01.525Z,46.3
2022-10-19T07:38:01.570Z,32.8
2022-10-19T07:43:01.563Z,23.6
2022-10-19T07:48:01.638Z,22.5
2022-10-19T07:53:01.693Z,18.0
2022-10-19T07:58:01.566Z,13.8
2022-10-19T08:03:31.490Z,10.9
2022-10-19T08:08:01.707Z,9.8
2022-10-19T08:13:01.519Z,10.4
2022-10-19T08:18:01.983Z,11.1
2022-10-19T08:33:01.526Z,11.6
2022-10-19T08:38:02.834Z,9.9
2022-10-19T08:48:01.517Z,10.0
2022-10-19T08:53:01.519Z,11.3
2022-10-19T08:58:09.671Z,11.5
2022-10-19T09:03:20.073Z,12.3
2022-10-19T09:08:01.413Z,11.6
2022-10-19T09:13:01.545Z,11.8
2022-10-19T09:18:01.539Z,10.8
2022-10-19T09:23:01.515Z,10.9
2022-10-19T09:28:09.974Z,10.3
2022-10-19T09:33:01.530Z,9.6
2022-10-19T09:38:01.545Z,8.7
2022-10-19T09:43:01.534Z,8.9
2022-10-19T09:48:06.981Z,7.6
2022-10-19T09:53:01.235Z,6.9
2022-10-19T09:58:01.327Z,7.5
2022-10-19T10:03:01.325Z,7.9
2022-10-19T10:08:01.336Z,7.7
2022-10-19T10:13:01.404Z,7.9
2022-10-19T10:18:01.351Z,8.0
2022-10-19T10:23:01.356Z,6.9
2022-10-19T10:28:01.299Z,6.4
2022-10-19T10:33:04.756Z,5.6
2022-10-19T10:38:01.431Z,5.0
2022-10-19T10:43:01.068Z,4.8
2022-10-19T10:48:01.576Z,3.8
2022-10-19T10:53:01.626Z,2.4
2022-10-19T10:58:01.574Z,1.8
2022-10-19T11:03:01.565Z,1.0
2022-10-19T11:13:01.388Z,0.4
2022-10-19T11:23:01.581Z,0.3
2022-10-19T11:33:01.496Z,0.2
2022-10-19T13:18:01.553Z,0.2
2022-10-19T13:23:01.416Z,0.4
2022-10-19T13:38:17.175Z,0.4
2022-10-19T13:43:01.409Z,0.2
2022-10-19T14:13:01.449Z,0.2
2022-10-19T14:28:01.248Z,0.8
2022-10-19T14:38:01.207Z,0.6
2022-10-19T15:08:01.526Z,0.5
2022-10-19T15:23:01.465Z,0.5
2022-10-19T15:28:17.192Z,0.4
2022-10-19T15:38:01.497Z,0.2
2022-10-19T15:53:02.031Z,0.2
2022-10-19T16:08:01.536Z,0.2
2022-10-19T16:13:01.686Z,1.0
2022-10-19T16:18:01.987Z,3.4
2022-10-19T16:23:01.543Z,4.4
2022-10-19T16:28:01.574Z,5.7
2022-10-19T16:33:01.618Z,7.7
2022-10-19T16:38:07.074Z,8.6
2022-10-19T16:43:01.564Z,7.4
2022-10-19T16:48:01.570Z,7.6
2022-10-19T16:53:01.698Z,7.3
2022-10-19T16:58:01.559Z,6.1
2022-10-19T17:03:01.532Z,5.5
2022-10-19T17:08:02.180Z,7.2
2022-10-19T17:13:01.552Z,8.8
2022-10-19T17:18:02.440Z,18.6
2022-10-19T17:23:01.525Z,25.4
2022-10-19T17:28:01.961Z,31.0
2022-10-19T17:33:02.017Z,30.3
2022-10-19T17:38:01.516Z,29.8
2022-10-19T17:43:01.514Z,22.1
2022-10-19T17:48:01.583Z,16.5
2022-10-19T17:53:01.547Z,12.4
2022-10-19T17:58:02.144Z,12.2
2022-10-19T18:03:01.500Z,11.4
2022-10-19T18:08:01.353Z,9.7
2022-10-19T18:13:01.337Z,10.6
2022-10-19T18:18:02.075Z,10.2
2022-10-19T18:23:01.277Z,9.9
2022-10-19T18:28:01.244Z,10.5
2022-10-19T18:33:01.422Z,11.6
2022-10-19T18:38:01.466Z,10.8
2022-10-19T18:48:01.749Z,10.6
2022-10-19T18:53:02.018Z,10.8
2022-10-19T18:58:01.492Z,10.2
2022-10-19T19:03:02.219Z,10.1
2022-10-19T19:08:01.539Z,9.4
2022-10-19T19:13:01.497Z,10.1
2022-10-19T19:18:01.535Z,9.1
2022-10-19T19:23:01.936Z,11.6
2022-10-19T19:28:02.004Z,12.6
2022-10-19T19:33:02.096Z,13.2
2022-10-19T19:38:01.534Z,13.7
2022-10-19T19:43:01.534Z,14.9
2022-10-19T19:48:02.761Z,12.3
2022-10-19T19:53:01.575Z,10.8
2022-10-19T19:58:01.536Z,10.2
2022-10-19T20:03:01.531Z,9.0
2022-10-19T20:08:01.611Z,8.0
2022-10-19T20:13:01.640Z,7.4
2022-10-19T20:18:01.841Z,7.2
2022-10-19T20:23:01.577Z,7.6
2022-10-19T20:28:01.526Z,8.2
2022-10-19T20:33:01.913Z,8.5
2022-10-19T20:38:01.531Z,9.4
2022-10-19T20:43:01.515Z,9.9
2022-10-19T20:48:01.522Z,10.6
2022-10-19T20:53:01.990Z,10.3
2022-10-19T20:58:01.519Z,10.9
2022-10-19T21:08:02.219Z,10.6
2022-10-19T21:13:01.434Z,9.8
2022-10-19T21:18:01.535Z,10.3
2022-10-19T21:23:01.517Z,9.6
2022-10-19T21:28:02.160Z,11.1
2022-10-19T21:33:01.550Z,12.1
2022-10-19T21:38:01.539Z,13.2
2022-10-19T21:43:01.414Z,12.8
2022-10-19T21:48:01.912Z,13.2
2022-10-19T21:53:01.542Z,12.1
2022-10-19T21:58:02.717Z,11.5
2022-10-19T22:03:01.543Z,11.0
2022-10-19T22:08:01.395Z,12.6
2022-10-19T22:13:01.359Z,13.6
2022-10-19T22:18:01.769Z,14.3
2022-10-19T22:23:01.396Z,15.7
2022-10-19T22:28:02.029Z,16.5
2022-10-19T22:33:00.951Z,15.0
2022-10-19T22:38:01.438Z,15.6
2022-10-19T22:43:07.288Z,16.0
2022-10-19T22:48:01.697Z,16.1
2022-10-19T22:53:01.333Z,17.5
2022-10-19T22:58:01.536Z,18.8
2022-10-19T23:03:01.376Z,18.5
2022-10-19T23:08:01.109Z,18.1
2022-10-19T23:13:02.030Z,18.2
2022-10-19T23:18:02.201Z,16.4
2022-10-19T23:23:01.537Z,16.1
2022-10-19T23:28:01.444Z,16.5
2022-10-19T23:33:01.591Z,17.1
2022-10-19T23:38:01.538Z,16.9
2022-10-19T23:43:01.546Z,17.4
2022-10-19T23:48:01.576Z,18.0
2022-10-19T23:53:01.474Z,16.6
2022-10-19T23:58:01.547Z,14.6
